Time;durP1;ratioP1;P1;durP2;ratioP2;P2;SDS_P1;SDS_P2;PMS_P1;PMS_P2;Temp;Humidity;BMP_temperature;BMP_pressure;BME280_temperature;BME280_humidity;BME280_pressure;Samples;Min_cycle;Max_cycle;Signal;HPM_P1;HPM_P2
2022/10/15 00:00:05;;;;;;;24.98;16.48;;;;;;;;;;5031202;28;20048;-75
2022/10/15 00:02:31;;;;;;;24.63;15.95;;;;;;;;;;5030842;28;20037;-76
2022/10/15 00:04:57;;;;;;;28.95;17.08;;;;;;;;;;5031046;28;20029;-76
2022/10/15 00:07:23;;;;;;;30.33;16.90;;;;;;;;;;5032430;28;20507;-76
2022/10/15 00:09:50;;;;;;;30.17;17.75;;;;;;;;;;5032817;28;20099;-75
2022/10/15 00:12:16;;;;;;;29.10;17.20;;;;;;;;;;5031695;28;20051;-76
2022/10/15 00:14:42;;;;;;;35.30;18.45;;;;;;;;;;5030756;28;20025;-76
2022/10/15 00:17:08;;;;;;;32.05;19.02;;;;;;;;;;5030902;28;20087;-76
2022/10/15 00:19:33;;;;;;;28.45;19.00;;;;;;;;;;5032181;28;20028;-75
2022/10/15 00:22:00;;;;;;;30.65;18.42;;;;;;;;;;5031533;28;20030;-75
2022/10/15 00:24:26;;;;;;;28.73;18.90;;;;;;;;;;5034856;28;20021;-76
2022/10/15 00:26:52;;;;;;;32.50;20.13;;;;;;;;;;5034314;28;20026;-74
2022/10/15 00:29:18;;;;;;;33.50;19.85;;;;;;;;;;5034368;28;20033;-76
2022/10/15 00:31:44;;;;;;;44.38;20.80;;;;;;;;;;5034586;28;20028;-75
2022/10/15 00:34:10;;;;;;;32.65;20.30;;;;;;;;;;5034741;28;20022;-75
2022/10/15 00:36:37;;;;;;;33.80;21.08;;;;;;;;;;5034502;28;20061;-76
2022/10/15 00:39:04;;;;;;;29.70;19.80;;;;;;;;;;5042358;28;20037;-76
2022/10/15 00:41:32;;;;;;;29.73;19.48;;;;;;;;;;5058860;28;20044;-76
2022/10/15 00:44:02;;;;;;;33.28;22.00;;;;;;;;;;5060327;23;20050;-74
2022/10/15 00:46:28;;;;;;;30.40;20.60;;;;;;;;;;5035139;28;20405;-75
2022/10/15 00:49:14;;;;;;;34.63;21.60;;;;;;;;;;5035407;28;20030;-75
2022/10/15 00:51:42;;;;;;;34.88;22.23;;;;;;;;;;5035450;28;20029;-75
2022/10/15 00:54:10;;;;;;;34.42;23.63;;;;;;;;;;5035775;28;20064;-75
2022/10/15 00:56:37;;;;;;;40.83;24.58;;;;;;;;;;5036454;28;20025;-75
2022/10/15 00:59:04;;;;;;;39.50;26.95;;;;;;;;;;5043124;28;20077;-75
2022/10/15 01:01:30;;;;;;;43.47;26.50;;;;;;;;;;5043231;28;20026;-74
2022/10/15 01:03:56;;;;;;;46.50;27.77;;;;;;;;;;5041484;28;20155;-75
2022/10/15 01:06:23;;;;;;;42.35;27.85;;;;;;;;;;5034763;28;20531;-75
2022/10/15 01:08:49;;;;;;;44.67;28.23;;;;;;;;;;5016964;28;20021;-75
2022/10/15 01:11:36;;;;;;;46.30;29.05;;;;;;;;;;5034767;28;20025;-75
2022/10/15 01:14:02;;;;;;;46.45;29.58;;;;;;;;;;5034698;28;20117;-75
2022/10/15 01:16:46;;;;;;;43.45;28.75;;;;;;;;;;5039837;28;20504;-75
2022/10/15 01:19:24;;;;;;;44.38;28.98;;;;;;;;;;5035170;28;20087;-75
2022/10/15 01:21:56;;;;;;;41.03;28.15;;;;;;;;;;5034796;28;20026;-75
2022/10/15 01:24:34;;;;;;;46.05;28.70;;;;;;;;;;5035139;28;20021;-75
2022/10/15 01:27:11;;;;;;;47.42;29.35;;;;;;;;;;5038692;28;20082;-74
2022/10/15 01:29:52;;;;;;;46.33;31.15;;;;;;;;;;5041053;28;20018;-75
2022/10/15 01:32:25;;;;;;;50.20;31.33;;;;;;;;;;5041446;28;20028;-75
2022/10/15 01:35:14;;;;;;;48.30;31.35;;;;;;;;;;5041903;28;20056;-75
2022/10/15 01:37:59;;;;;;;47.00;30.48;;;;;;;;;;5016293;28;20033;-75
2022/10/15 01:40:25;;;;;;;;;;;;;;;;;;5034956;28;20044;-74
2022/10/15 01:42:53;;;;;;;43.53;29.85;;;;;;;;;;5034261;28;19913;-74
2022/10/15 01:45:20;;;;;;;45.80;31.15;;;;;;;;;;5033708;28;20029;-74
2022/10/15 01:47:49;;;;;;;52.53;31.30;;;;;;;;;;5034354;28;20028;-75
2022/10/15 01:50:16;;;;;;;51.20;32.78;;;;;;;;;;5034205;28;20517;-75
2022/10/15 01:52:43;;;;;;;51.17;33.40;;;;;;;;;;5032791;28;20026;-74
2022/10/15 01:55:11;;;;;;;52.28;33.58;;;;;;;;;;5034040;28;20116;-75
2022/10/15 01:57:38;;;;;;;56.53;32.95;;;;;;;;;;5035232;28;20030;-75
2022/10/15 02:00:04;;;;;;;49.75;33.08;;;;;;;;;;5049993;28;20085;-74
2022/10/15 02:02:30;;;;;;;54.67;34.10;;;;;;;;;;5052167;28;20040;-75
2022/10/15 02:04:56;;;;;;;49.47;32.97;;;;;;;;;;5040387;28;20030;-74
2022/10/15 02:07:34;;;;;;;53.58;33.65;;;;;;;;;;5038460;28;20029;-74
2022/10/15 02:10:21;;;;;;;56.15;34.08;;;;;;;;;;5033969;28;20021;-75
2022/10/15 02:12:56;;;;;;;56.40;34.85;;;;;;;;;;5033520;28;20021;-74
2022/10/15 02:15:25;;;;;;;52.47;33.53;;;;;;;;;;5033613;28;20312;-75
2022/10/15 02:17:56;;;;;;;53.25;34.85;;;;;;;;;;5033872;28;20025;-75
2022/10/15 02:20:24;;;;;;;57.35;36.30;;;;;;;;;;5034602;28;20572;-75
2022/10/15 02:22:55;;;;;;;59.33;36.45;;;;;;;;;;5016994;28;20025;-74
2022/10/15 02:25:23;;;;;;;56.25;35.08;;;;;;;;;;5034026;28;20441;-75
2022/10/15 02:27:51;;;;;;;55.92;34.60;;;;;;;;;;5033032;28;20757;-75
2022/10/15 02:30:17;;;;;;;61.67;36.38;;;;;;;;;;5033465;28;20412;-75
2022/10/15 02:32:45;;;;;;;56.92;37.28;;;;;;;;;;5015438;28;20022;-75
2022/10/15 02:35:11;;;;;;;63.70;37.80;;;;;;;;;;5033447;28;20524;-75
2022/10/15 02:37:38;;;;;;;64.15;38.58;;;;;;;;;;5015295;28;20034;-75
2022/10/15 02:40:04;;;;;;;61.53;37.97;;;;;;;;;;5033144;28;20026;-75
2022/10/15 02:42:30;;;;;;;64.00;38.40;;;;;;;;;;5030815;28;20040;-75
2022/10/15 02:44:56;;;;;;;68.28;38.30;;;;;;;;;;5032886;28;20029;-75
2022/10/15 02:47:22;;;;;;;67.88;39.50;;;;;;;;;;5032608;28;20025;-75
2022/10/15 02:49:48;;;;;;;58.42;35.95;;;;;;;;;;5032870;28;20025;-75
2022/10/15 02:52:14;;;;;;;59.13;36.85;;;;;;;;;;5032609;28;20018;-76
2022/10/15 02:54:40;;;;;;;62.22;38.53;;;;;;;;;;5032329;28;20029;-76
2022/10/15 02:57:06;;;;;;;61.47;37.70;;;;;;;;;;5032414;28;20029;-75
2022/10/15 02:59:32;;;;;;;62.33;37.75;;;;;;;;;;5032684;28;20026;-75
2022/10/15 03:01:58;;;;;;;58.88;37.28;;;;;;;;;;5033293;28;20056;-75
2022/10/15 03:04:24;;;;;;;61.95;38.05;;;;;;;;;;5016170;28;20025;-75
2022/10/15 03:06:50;;;;;;;65.22;38.60;;;;;;;;;;5032952;28;20103;-75
2022/10/15 03:09:16;;;;;;;63.13;36.35;;;;;;;;;;5033896;28;20475;-74
2022/10/15 03:11:42;;;;;;;63.58;36.70;;;;;;;;;;5032603;28;20513;-75
2022/10/15 03:14:07;;;;;;;56.83;34.83;;;;;;;;;;5032309;28;20021;-75
2022/10/15 03:16:33;;;;;;;60.70;35.92;;;;;;;;;;5032543;28;20053;-75
2022/10/15 03:18:59;;;;;;;59.13;35.00;;;;;;;;;;5032657;28;20034;-75
2022/10/15 03:21:27;;;;;;;55.80;33.03;;;;;;;;;;5014532;28;20074;-75
2022/10/15 03:23:53;;;;;;;57.30;33.60;;;;;;;;;;5032427;28;20032;-75
2022/10/15 03:26:19;;;;;;;61.17;36.30;;;;;;;;;;5032188;28;20390;-75
2022/10/15 03:28:45;;;;;;;61.25;35.83;;;;;;;;;;5033983;28;20436;-74
2022/10/15 03:31:13;;;;;;;53.60;32.53;;;;;;;;;;5035337;28;20380;-75
2022/10/15 03:33:39;;;;;;;59.95;33.80;;;;;;;;;;5035303;28;20022;-74
2022/10/15 03:36:05;;;;;;;56.88;32.60;;;;;;;;;;5017367;28;20087;-75
2022/10/15 03:38:31;;;;;;;65.53;33.53;;;;;;;;;;5034256;28;20448;-75
2022/10/15 03:40:57;;;;;;;57.72;31.02;;;;;;;;;;5033766;28;20133;-74
2022/10/15 03:43:24;;;;;;;65.00;32.78;;;;;;;;;;5033858;28;20040;-74
2022/10/15 03:45:50;;;;;;;57.22;30.83;;;;;;;;;;5015839;28;20030;-73
2022/10/15 03:48:16;;;;;;;54.00;30.83;;;;;;;;;;5017984;28;20018;-73
2022/10/15 03:50:42;;;;;;;53.08;28.98;;;;;;;;;;5038373;28;20113;-74
2022/10/15 03:53:08;;;;;;;58.53;30.67;;;;;;;;;;5025333;28;20026;-73
2022/10/15 03:55:34;;;;;;;60.63;31.42;;;;;;;;;;5046868;28;20029;-74
2022/10/15 03:58:00;;;;;;;59.83;29.83;;;;;;;;;;5046496;28;20033;-73
2022/10/15 04:00:26;;;;;;;53.25;30.40;;;;;;;;;;5037734;28;20029;-73
2022/10/15 04:02:52;;;;;;;53.17;30.35;;;;;;;;;;5037252;28;20022;-74
2022/10/15 04:05:18;;;;;;;53.25;29.17;;;;;;;;;;5019425;28;20056;-74
2022/10/15 04:07:44;;;;;;;55.38;30.33;;;;;;;;;;5038468;28;20032;-74
2022/10/15 04:10:10;;;;;;;50.45;28.25;;;;;;;;;;5025533;28;20021;-75
2022/10/15 04:12:36;;;;;;;54.50;27.98;;;;;;;;;;5049153;28;20025;-75
2022/10/15 04:15:02;;;;;;;56.10;29.83;;;;;;;;;;5048730;28;20026;-74
2022/10/15 04:17:28;;;;;;;57.45;30.00;;;;;;;;;;5048784;28;20051;-74
2022/10/15 04:19:53;;;;;;;46.30;26.45;;;;;;;;;;5049012;28;20029;-73
2022/10/15 04:22:20;;;;;;;52.90;29.80;;;;;;;;;;5049252;28;20033;-73
2022/10/15 04:24:45;;;;;;;56.22;27.75;;;;;;;;;;5051193;28;20069;-74
2022/10/15 04:27:13;;;;;;;59.50;31.38;;;;;;;;;;5051009;28;20033;-74
2022/10/15 04:29:39;;;;;;;52.15;28.27;;;;;;;;;;5044853;28;20025;-74
2022/10/15 04:32:05;;;;;;;57.97;30.42;;;;;;;;;;5043547;28;20152;-72
2022/10/15 04:34:31;;;;;;;56.67;30.60;;;;;;;;;;5047364;28;20128;-74
2022/10/15 04:36:57;;;;;;;65.07;31.40;;;;;;;;;;5051108;28;20029;-73
2022/10/15 04:39:23;;;;;;;63.08;33.47;;;;;;;;;;5055853;28;20053;-73
2022/10/15 04:41:49;;;;;;;63.35;33.30;;;;;;;;;;5053832;28;20033;-73
2022/10/15 04:44:15;;;;;;;66.65;31.58;;;;;;;;;;5055090;28;20040;-74
2022/10/15 04:46:41;;;;;;;63.85;34.38;;;;;;;;;;5053473;28;20025;-74
2022/10/15 04:49:07;;;;;;;66.45;34.33;;;;;;;;;;5038485;28;20032;-74
2022/10/15 04:51:33;;;;;;;66.68;35.35;;;;;;;;;;5018467;28;20052;-74
2022/10/15 04:54:00;;;;;;;62.80;33.08;;;;;;;;;;5036900;28;20029;-73
2022/10/15 04:56:26;;;;;;;76.65;36.13;;;;;;;;;;5027964;28;20081;-74
2022/10/15 04:58:52;;;;;;;64.80;35.55;;;;;;;;;;5059605;28;20044;-74
2022/10/15 05:01:20;;;;;;;74.40;35.20;;;;;;;;;;5052973;28;20034;-74
2022/10/15 05:03:47;;;;;;;71.65;34.70;;;;;;;;;;5018572;28;20029;-73
2022/10/15 05:06:14;;;;;;;79.88;38.15;;;;;;;;;;5036258;28;20124;-72
2022/10/15 05:08:41;;;;;;;78.13;38.13;;;;;;;;;;5036822;28;20741;-72
2022/10/15 05:11:11;;;;;;;78.70;38.72;;;;;;;;;;5041153;28;20134;-74
2022/10/15 05:13:37;;;;;;;88.63;40.25;;;;;;;;;;5044910;28;20040;-74
2022/10/15 05:16:16;;;;;;;93.72;40.90;;;;;;;;;;5038657;28;20462;-74
2022/10/15 05:18:43;;;;;;;90.82;42.45;;;;;;;;;;5036448;28;20030;-75
2022/10/15 05:21:09;;;;;;;95.55;41.95;;;;;;;;;;5036073;28;20029;-76
2022/10/15 05:23:36;;;;;;;96.93;42.38;;;;;;;;;;5036059;28;20025;-76
2022/10/15 05:26:03;;;;;;;94.78;44.17;;;;;;;;;;5035240;28;20409;-74
2022/10/15 05:28:29;;;;;;;95.20;42.58;;;;;;;;;;5035935;28;20033;-77
2022/10/15 05:30:55;;;;;;;97.45;43.10;;;;;;;;;;5036874;28;20108;-75
2022/10/15 05:33:22;;;;;;;92.60;39.63;;;;;;;;;;5037258;28;20506;-75
2022/10/15 05:35:48;;;;;;;97.00;40.67;;;;;;;;;;5004703;28;20056;-75
2022/10/15 05:38:14;;;;;;;93.70;41.40;;;;;;;;;;5038925;28;20025;-75
2022/10/15 05:40:40;;;;;;;105.47;46.40;;;;;;;;;;5019102;28;20486;-73
2022/10/15 05:43:06;;;;;;;99.68;44.35;;;;;;;;;;5036122;28;20084;-74
2022/10/15 05:45:32;;;;;;;102.53;44.17;;;;;;;;;;5035561;28;20386;-75
2022/10/15 05:47:58;;;;;;;94.13;43.67;;;;;;;;;;5018460;28;20104;-75
2022/10/15 05:50:24;;;;;;;95.45;44.05;;;;;;;;;;5018929;28;20017;-75
2022/10/15 05:52:50;;;;;;;103.30;44.58;;;;;;;;;;5017487;28;20021;-75
2022/10/15 05:55:16;;;;;;;82.85;40.90;;;;;;;;;;5035356;28;20526;-75
2022/10/15 05:57:42;;;;;;;91.45;40.42;;;;;;;;;;5035041;28;20030;-74
2022/10/15 06:00:08;;;;;;;95.53;42.53;;;;;;;;;;5035245;28;20055;-74
2022/10/15 06:02:34;;;;;;;90.47;41.50;;;;;;;;;;5017598;28;20474;-74
2022/10/15 06:05:00;;;;;;;97.75;42.75;;;;;;;;;;5035177;28;20160;-74
2022/10/15 06:07:26;;;;;;;86.78;42.00;;;;;;;;;;5034950;28;20021;-73
2022/10/15 06:09:52;;;;;;;88.25;40.70;;;;;;;;;;5017291;28;20080;-74
2022/10/15 06:12:18;;;;;;;84.38;39.45;;;;;;;;;;5034949;28;20021;-74
2022/10/15 06:14:44;;;;;;;91.22;41.65;;;;;;;;;;5034950;28;20028;-74
2022/10/15 06:17:10;;;;;;;89.15;42.85;;;;;;;;;;5035597;28;20044;-73
2022/10/15 06:19:36;;;;;;;93.82;43.60;;;;;;;;;;5035685;28;20029;-74
2022/10/15 06:22:02;;;;;;;95.63;46.50;;;;;;;;;;5036284;28;20056;-75
2022/10/15 06:24:28;;;;;;;96.70;45.78;;;;;;;;;;5038908;28;20053;-74
2022/10/15 06:26:54;;;;;;;105.57;48.85;;;;;;;;;;5040022;28;20387;-74
2022/10/15 06:29:20;;;;;;;95.28;44.35;;;;;;;;;;5047086;28;20009;-74
2022/10/15 06:31:46;;;;;;;109.75;49.03;;;;;;;;;;5056676;28;20025;-74
2022/10/15 06:34:12;;;;;;;98.57;46.30;;;;;;;;;;5057969;28;20049;-73
2022/10/15 06:36:38;;;;;;;107.60;50.97;;;;;;;;;;5051903;28;20034;-77
2022/10/15 06:39:03;;;;;;;100.68;47.45;;;;;;;;;;5036204;28;20022;-74
2022/10/15 06:41:29;;;;;;;102.05;48.45;;;;;;;;;;5035327;28;20109;-75
2022/10/15 06:43:55;;;;;;;102.05;50.35;;;;;;;;;;5029126;23;20041;-72
2022/10/15 06:46:21;;;;;;;106.72;50.83;;;;;;;;;;5032650;28;20480;-73
2022/10/15 06:48:48;;;;;;;110.38;52.15;;;;;;;;;;5029253;28;20524;-73
2022/10/15 06:51:14;;;;;;;105.97;51.03;;;;;;;;;;5032497;28;20021;-70
2022/10/15 06:53:42;;;;;;;119.88;53.67;;;;;;;;;;5032793;28;20029;-72
2022/10/15 06:56:08;;;;;;;113.30;52.28;;;;;;;;;;5032229;28;20470;-71
2022/10/15 06:58:34;;;;;;;113.05;52.08;;;;;;;;;;5032558;28;20056;-72
2022/10/15 07:01:01;;;;;;;113.78;53.55;;;;;;;;;;5032202;28;20033;-73
2022/10/15 07:03:27;;;;;;;115.97;54.17;;;;;;;;;;5032144;28;20025;-73
2022/10/15 07:05:53;;;;;;;121.60;54.42;;;;;;;;;;5031844;28;20022;-72
2022/10/15 07:08:19;;;;;;;114.35;51.20;;;;;;;;;;5032864;28;20512;-74
2022/10/15 07:10:45;;;;;;;108.35;51.35;;;;;;;;;;5034146;28;20100;-72
2022/10/15 07:13:12;;;;;;;114.03;50.78;;;;;;;;;;5037102;28;20029;-74
2022/10/15 07:15:38;;;;;;;115.30;51.45;;;;;;;;;;5037125;28;20033;-72
2022/10/15 07:18:04;;;;;;;110.60;50.55;;;;;;;;;;5032815;28;20025;-73
2022/10/15 07:20:30;;;;;;;106.15;48.95;;;;;;;;;;5032527;28;20083;-73
2022/10/15 07:22:59;;;;;;;106.07;50.40;;;;;;;;;;5032646;28;20065;-71
2022/10/15 07:25:26;;;;;;;108.82;48.25;;;;;;;;;;5031864;28;20112;-72
2022/10/15 07:27:54;;;;;;;110.90;50.28;;;;;;;;;;5032345;28;20431;-73
2022/10/15 07:30:20;;;;;;;107.93;48.88;;;;;;;;;;5014546;28;20101;-74
2022/10/15 07:32:46;;;;;;;106.53;48.42;;;;;;;;;;5032035;28;20053;-73
2022/10/15 07:35:12;;;;;;;124.38;50.15;;;;;;;;;;5031992;28;20048;-72
2022/10/15 07:37:38;;;;;;;109.45;50.45;;;;;;;;;;5032448;28;20032;-77
2022/10/15 07:40:04;;;;;;;114.55;48.67;;;;;;;;;;5032339;28;20037;-76
2022/10/15 07:42:30;;;;;;;112.60;50.45;;;;;;;;;;5032551;28;20026;-75
2022/10/15 07:44:56;;;;;;;107.40;47.55;;;;;;;;;;5031800;28;20033;-74
2022/10/15 07:47:22;;;;;;;108.93;48.08;;;;;;;;;;5031862;28;20021;-75
2022/10/15 07:49:48;;;;;;;113.00;47.70;;;;;;;;;;5032509;28;20029;-75
2022/10/15 07:52:14;;;;;;;97.60;47.60;;;;;;;;;;5014501;28;20523;-76
2022/10/15 07:54:40;;;;;;;103.65;46.78;;;;;;;;;;5032104;28;20101;-75
2022/10/15 07:57:06;;;;;;;107.82;46.92;;;;;;;;;;5031650;28;20021;-74
2022/10/15 07:59:32;;;;;;;99.32;45.17;;;;;;;;;;5031888;28;20080;-75
2022/10/15 08:01:58;;;;;;;97.18;45.42;;;;;;;;;;5031806;28;20030;-75
2022/10/15 08:04:24;;;;;;;90.20;44.22;;;;;;;;;;5031850;28;20405;-75
2022/10/15 08:06:50;;;;;;;91.32;42.67;;;;;;;;;;5013501;28;20029;-75
2022/10/15 08:09:16;;;;;;;84.53;40.85;;;;;;;;;;5031980;28;20029;-77
2022/10/15 08:11:42;;;;;;;78.03;39.28;;;;;;;;;;5016554;28;20018;-75
2022/10/15 08:14:08;;;;;;;70.72;35.95;;;;;;;;;;5031834;28;20029;-77
2022/10/15 08:16:34;;;;;;;78.78;38.30;;;;;;;;;;5031722;28;20028;-74
2022/10/15 08:19:00;;;;;;;76.35;38.20;;;;;;;;;;5031791;28;20482;-71
2022/10/15 08:21:26;;;;;;;72.85;36.72;;;;;;;;;;5032340;28;20104;-72
2022/10/15 08:23:52;;;;;;;70.15;38.33;;;;;;;;;;5032828;28;20071;-72
2022/10/15 08:26:18;;;;;;;70.40;36.58;;;;;;;;;;5031713;28;20026;-73
2022/10/15 08:28:44;;;;;;;69.57;35.55;;;;;;;;;;5031826;28;20055;-73
2022/10/15 08:31:10;;;;;;;70.13;34.67;;;;;;;;;;5014272;28;20513;-72
2022/10/15 08:33:37;;;;;;;70.97;33.55;;;;;;;;;;5032490;28;20029;-73
2022/10/15 08:36:06;;;;;;;67.15;33.30;;;;;;;;;;5032063;28;20426;-73
2022/10/15 08:38:33;;;;;;;63.88;34.50;;;;;;;;;;5014694;28;20079;-73
2022/10/15 08:41:00;;;;;;;64.07;32.25;;;;;;;;;;5032521;28;20025;-73
2022/10/15 08:43:32;;;;;;;68.75;33.50;;;;;;;;;;5015803;28;20452;-72
2022/10/15 08:46:01;;;;;;;63.00;33.05;;;;;;;;;;5035139;28;20036;-74
2022/10/15 08:48:31;;;;;;;67.22;34.65;;;;;;;;;;5035773;28;20026;-73
2022/10/15 08:51:11;;;;;;;66.60;32.92;;;;;;;;;;5035149;28;20116;-73
2022/10/15 08:53:39;;;;;;;71.53;35.42;;;;;;;;;;5017299;28;20443;-74
2022/10/15 08:56:11;;;;;;;65.63;33.85;;;;;;;;;;5034925;28;20425;-74
2022/10/15 08:58:44;;;;;;;62.25;33.92;;;;;;;;;;5035532;28;20076;-75
2022/10/15 09:01:29;;;;;;;63.38;33.00;;;;;;;;;;5035058;28;20057;-74
2022/10/15 09:04:14;;;;;;;76.15;36.00;;;;;;;;;;5036092;28;20423;-74
2022/10/15 09:06:40;;;;;;;61.03;31.75;;;;;;;;;;5035388;28;20068;-75
2022/10/15 09:09:11;;;;;;;50.03;28.17;;;;;;;;;;5036271;28;20032;-76
2022/10/15 09:11:50;;;;;;;46.97;24.75;;;;;;;;;;5017799;28;20120;-76
2022/10/15 09:14:17;;;;;;;49.10;24.92;;;;;;;;;;5036226;28;20089;-74
2022/10/15 09:16:44;;;;;;;44.55;23.73;;;;;;;;;;5035285;28;20037;-74
2022/10/15 09:19:21;;;;;;;41.67;23.27;;;;;;;;;;5035620;28;20117;-77
2022/10/15 09:21:48;;;;;;;47.53;24.70;;;;;;;;;;5018344;28;20394;-76
2022/10/15 09:24:18;;;;;;;40.53;23.75;;;;;;;;;;5034518;28;20021;-75
2022/10/15 09:26:52;;;;;;;45.28;25.33;;;;;;;;;;5034708;28;20034;-78
2022/10/15 09:29:22;;;;;;;47.00;25.27;;;;;;;;;;5034904;28;20026;-76
2022/10/15 09:32:04;;;;;;;43.60;24.70;;;;;;;;;;5035308;28;20017;-76
2022/10/15 09:34:33;;;;;;;48.00;24.98;;;;;;;;;;5035813;28;20045;-77
2022/10/15 09:37:06;;;;;;;48.20;25.15;;;;;;;;;;5034928;28;20040;-73
2022/10/15 09:39:36;;;;;;;37.30;21.42;;;;;;;;;;5035871;28;20033;-74
2022/10/15 09:42:14;;;;;;;41.22;22.95;;;;;;;;;;5036818;28;20025;-74
2022/10/15 09:44:42;;;;;;;41.70;22.27;;;;;;;;;;5017952;28;20041;-73
2022/10/15 09:47:22;;;;;;;43.78;20.67;;;;;;;;;;5034481;28;20034;-73
2022/10/15 09:49:48;;;;;;;39.63;21.40;;;;;;;;;;5036835;28;20026;-75
2022/10/15 09:52:43;;;;;;;41.20;21.55;;;;;;;;;;5035786;28;20021;-75
2022/10/15 09:55:09;;;;;;;;;;;;;;;;;;5034700;28;20117;-74
2022/10/15 09:57:37;;;;;;;38.78;22.88;;;;;;;;;;5034837;28;19948;-72
2022/10/15 10:00:10;;;;;;;34.95;19.92;;;;;;;;;;5036223;28;20426;-74
2022/10/15 10:02:36;;;;;;;40.10;21.48;;;;;;;;;;5040283;28;20018;-74
2022/10/15 10:05:42;;;;;;;34.85;18.90;;;;;;;;;;5048760;28;20037;-75
2022/10/15 10:08:27;;;;;;;33.47;18.83;;;;;;;;;;4936170;29;20028;-74
2022/10/15 10:10:54;;;;;;;32.20;19.30;;;;;;;;;;4950140;29;20031;-73
2022/10/15 10:13:22;;;;;;;33.72;20.33;;;;;;;;;;5016791;28;20028;-74
2022/10/15 10:15:48;;;;;;;37.40;19.23;;;;;;;;;;5052540;28;20060;-75
2022/10/15 10:18:18;;;;;;;35.58;19.55;;;;;;;;;;5053523;28;20034;-74
2022/10/15 10:20:58;;;;;;;31.63;16.40;;;;;;;;;;5034501;28;20034;-74
2022/10/15 10:23:28;;;;;;;29.88;16.83;;;;;;;;;;5034509;28;20030;-76
2022/10/15 10:25:56;;;;;;;33.53;16.13;;;;;;;;;;5034492;28;20390;-73
2022/10/15 10:28:26;;;;;;;33.13;18.33;;;;;;;;;;5033755;28;20432;-72
2022/10/15 10:30:55;;;;;;;31.73;17.45;;;;;;;;;;5033559;28;20025;-73
2022/10/15 10:33:29;;;;;;;24.23;13.70;;;;;;;;;;5033767;28;20036;-74
2022/10/15 10:35:55;;;;;;;35.03;17.30;;;;;;;;;;5033661;28;20033;-74
2022/10/15 10:38:24;;;;;;;29.67;15.40;;;;;;;;;;5033707;28;20037;-74
2022/10/15 10:40:56;;;;;;;31.45;16.65;;;;;;;;;;5035606;28;20053;-73
2022/10/15 10:43:27;;;;;;;40.28;17.25;;;;;;;;;;5034807;28;20112;-74
2022/10/15 10:46:05;;;;;;;27.40;16.25;;;;;;;;;;5034855;28;20041;-76
2022/10/15 10:48:40;;;;;;;22.77;13.48;;;;;;;;;;5016790;28;20029;-74
2022/10/15 10:51:17;;;;;;;29.60;13.60;;;;;;;;;;5015775;28;20025;-73
2022/10/15 10:53:52;;;;;;;32.03;14.90;;;;;;;;;;5015324;28;20017;-76
2022/10/15 10:56:21;;;;;;;28.38;13.88;;;;;;;;;;5034579;28;20033;-74
2022/10/15 10:58:48;;;;;;;24.88;12.55;;;;;;;;;;5034788;28;20026;-76
2022/10/15 11:01:14;;;;;;;29.75;14.27;;;;;;;;;;5033864;28;20057;-72
2022/10/15 11:03:43;;;;;;;24.27;11.07;;;;;;;;;;5034418;28;20038;-73
2022/10/15 11:06:09;;;;;;;22.60;11.00;;;;;;;;;;5033349;28;20034;-73
2022/10/15 11:08:43;;;;;;;16.67;9.23;;;;;;;;;;5032785;28;20030;-74
2022/10/15 11:11:18;;;;;;;20.35;9.63;;;;;;;;;;5033311;28;20105;-74
2022/10/15 11:14:03;;;;;;;16.23;8.30;;;;;;;;;;5032351;28;20541;-73
2022/10/15 11:16:50;;;;;;;19.60;8.63;;;;;;;;;;5032589;28;20375;-72
2022/10/15 11:19:20;;;;;;;14.57;7.40;;;;;;;;;;5032549;28;20026;-73
2022/10/15 11:22:05;;;;;;;21.92;7.55;;;;;;;;;;5033072;28;20529;-73
2022/10/15 11:24:31;;;;;;;;;;;;;;;;;;5033775;28;20029;-73
2022/10/15 11:27:14;;;;;;;13.38;6.60;;;;;;;;;;5034492;28;19912;-73
2022/10/15 11:29:40;;;;;;;15.88;7.88;;;;;;;;;;5033225;28;20033;-74
2022/10/15 11:32:15;;;;;;;15.90;8.13;;;;;;;;;;5033241;28;20025;-75
2022/10/15 11:34:41;;;;;;;19.27;7.15;;;;;;;;;;5032412;28;20501;-74
2022/10/15 11:37:17;;;;;;;14.73;7.18;;;;;;;;;;5036697;28;20030;-74
2022/10/15 11:39:49;;;;;;;13.00;7.72;;;;;;;;;;5026578;28;20025;-74
2022/10/15 11:42:24;;;;;;;16.60;6.60;;;;;;;;;;5033848;28;20037;-74
2022/10/15 11:44:53;;;;;;;14.48;6.18;;;;;;;;;;5033959;28;20095;-79
2022/10/15 11:47:42;;;;;;;12.93;6.00;;;;;;;;;;5017447;28;20549;-76
2022/10/15 11:50:28;;;;;;;12.73;5.32;;;;;;;;;;5037396;28;20103;-74
2022/10/15 11:53:11;;;;;;;12.20;4.90;;;;;;;;;;5023737;28;20029;-74
2022/10/15 11:55:55;;;;;;;14.27;4.25;;;;;;;;;;5033900;28;20053;-76
2022/10/15 11:58:33;;;;;;;11.57;4.43;;;;;;;;;;5035480;28;20029;-76
2022/10/15 12:01:07;;;;;;;9.07;4.25;;;;;;;;;;5033549;28;20109;-73
2022/10/15 12:03:35;;;;;;;13.57;4.95;;;;;;;;;;5035243;28;20361;-76
2022/10/15 12:06:04;;;;;;;9.57;4.13;;;;;;;;;;5032844;28;20052;-75
2022/10/15 12:08:33;;;;;;;9.15;3.55;;;;;;;;;;5033180;28;20580;-77
2022/10/15 12:11:06;;;;;;;8.82;4.05;;;;;;;;;;5035403;28;20086;-73
2022/10/15 12:13:32;;;;;;;14.48;6.03;;;;;;;;;;5033793;28;20048;-77
2022/10/15 12:15:58;;;;;;;11.40;3.55;;;;;;;;;;5032965;28;20034;-75
2022/10/15 12:18:31;;;;;;;12.30;4.30;;;;;;;;;;5035373;28;20041;-73
2022/10/15 12:20:58;;;;;;;9.38;4.18;;;;;;;;;;5033834;28;20493;-74
2022/10/15 12:23:26;;;;;;;13.25;4.57;;;;;;;;;;5036023;28;20084;-74
2022/10/15 12:25:52;;;;;;;10.25;4.05;;;;;;;;;;5035088;28;20034;-73
2022/10/15 12:28:23;;;;;;;13.23;4.53;;;;;;;;;;5037752;28;20108;-75
2022/10/15 12:30:57;;;;;;;11.20;4.57;;;;;;;;;;5036153;28;20025;-75
2022/10/15 12:33:33;;;;;;;10.60;3.50;;;;;;;;;;5021668;28;20022;-74
2022/10/15 12:36:01;;;;;;;10.63;4.28;;;;;;;;;;5022009;28;20519;-73
2022/10/15 12:38:31;;;;;;;8.05;4.35;;;;;;;;;;5041910;28;20032;-74
2022/10/15 12:40:59;;;;;;;11.38;4.50;;;;;;;;;;5039265;28;20021;-73
2022/10/15 12:43:26;;;;;;;8.52;4.70;;;;;;;;;;5023410;28;20029;-73
2022/10/15 12:45:54;;;;;;;9.45;4.03;;;;;;;;;;5062154;23;20037;-80
2022/10/15 12:48:20;;;;;;;12.13;4.18;;;;;;;;;;5037544;28;20064;-82
2022/10/15 12:50:47;;;;;;;8.40;3.53;;;;;;;;;;5039643;28;20017;-82
2022/10/15 12:53:33;;;;;;;9.73;4.00;;;;;;;;;;5040391;28;20038;-80
2022/10/15 12:56:11;;;;;;;17.88;7.10;;;;;;;;;;5040310;28;20045;-78
2022/10/15 12:58:38;;;;;;;9.65;4.00;;;;;;;;;;5040371;28;20065;-82
2022/10/15 13:01:26;;;;;;;7.93;3.92;;;;;;;;;;5039911;28;20077;-82
2022/10/15 13:03:55;;;;;;;7.50;4.35;;;;;;;;;;5012617;28;20089;-75
2022/10/15 13:06:23;;;;;;;13.35;5.68;;;;;;;;;;5033070;28;20044;-78
2022/10/15 13:08:58;;;;;;;12.30;4.38;;;;;;;;;;5016967;28;20080;-75
2022/10/15 13:11:27;;;;;;;6.32;4.22;;;;;;;;;;5017490;28;20030;-74
2022/10/15 13:14:23;;;;;;;10.95;4.43;;;;;;;;;;5016266;28;20072;-73
2022/10/15 13:16:49;;;;;;;13.43;5.85;;;;;;;;;;5004063;28;20042;-75
2022/10/15 13:19:19;;;;;;;12.30;5.60;;;;;;;;;;5016435;28;20029;-75
2022/10/15 13:21:49;;;;;;;12.93;6.05;;;;;;;;;;5017198;28;20030;-74
2022/10/15 13:24:17;;;;;;;15.02;6.40;;;;;;;;;;5001131;28;20030;-74
2022/10/15 13:26:43;;;;;;;12.63;6.47;;;;;;;;;;5018783;28;20076;-74
2022/10/15 13:29:16;;;;;;;12.85;6.53;;;;;;;;;;5021537;28;20384;-74
2022/10/15 13:31:43;;;;;;;13.18;6.38;;;;;;;;;;5006181;28;20244;-77
2022/10/15 13:34:21;;;;;;;14.55;7.18;;;;;;;;;;5022409;28;20042;-76
2022/10/15 13:36:47;;;;;;;11.40;5.60;;;;;;;;;;5025261;28;20049;-74
2022/10/15 13:39:22;;;;;;;16.45;6.28;;;;;;;;;;5022195;28;20113;-75
2022/10/15 13:41:48;;;;;;;10.68;6.13;;;;;;;;;;4998871;28;20569;-73
2022/10/15 13:44:24;;;;;;;11.80;6.35;;;;;;;;;;5014949;28;20115;-74
2022/10/15 13:46:50;;;;;;;16.48;6.40;;;;;;;;;;5016052;28;20033;-73
2022/10/15 13:49:17;;;;;;;12.57;5.85;;;;;;;;;;5014640;28;20022;-76
2022/10/15 13:51:45;;;;;;;15.68;8.45;;;;;;;;;;4997760;28;20057;-75
2022/10/15 13:54:31;;;;;;;20.00;6.35;;;;;;;;;;5016040;28;20113;-75
2022/10/15 13:57:00;;;;;;;14.15;7.00;;;;;;;;;;5020682;28;20025;-79
2022/10/15 13:59:27;;;;;;;15.80;7.43;;;;;;;;;;5017857;28;20442;-77
2022/10/15 14:01:59;;;;;;;16.65;7.03;;;;;;;;;;5017216;28;20021;-75
2022/10/15 14:04:27;;;;;;;13.77;7.65;;;;;;;;;;5016717;28;20479;-74
2022/10/15 14:06:58;;;;;;;14.80;6.72;;;;;;;;;;5015995;28;20476;-78
2022/10/15 14:09:27;;;;;;;13.80;6.15;;;;;;;;;;4998901;28;20439;-77
2022/10/15 14:11:53;;;;;;;10.85;6.50;;;;;;;;;;5016882;28;20022;-76
2022/10/15 14:14:46;;;;;;;14.07;6.03;;;;;;;;;;5002671;28;20036;-75
2022/10/15 14:17:20;;;;;;;15.55;8.82;;;;;;;;;;5012118;28;20108;-75
2022/10/15 14:19:57;;;;;;;22.15;9.75;;;;;;;;;;5015673;28;20022;-77
2022/10/15 14:22:24;;;;;;;17.33;10.52;;;;;;;;;;5015036;28;20029;-76
2022/10/15 14:24:51;;;;;;;17.40;9.63;;;;;;;;;;4996957;28;20121;-75
2022/10/15 14:27:20;;;;;;;18.40;9.55;;;;;;;;;;5014780;28;20024;-76
2022/10/15 14:29:47;;;;;;;16.45;10.00;;;;;;;;;;5014860;28;20037;-74
2022/10/15 14:32:26;;;;;;;20.00;9.60;;;;;;;;;;4997292;28;20021;-76